sensor_id;sensor_type;location;lat;lon;timestamp;temperature;humidity
4530;DHT22;2277;51.626;7.516;2023-07-16T00:02:06;21.30;99.90
4530;DHT22;2277;51.626;7.516;2023-07-16T00:04:32;21.30;99.90
4530;DHT22;2277;51.626;7.516;2023-07-16T00:07:01;21.30;99.90
4530;DHT22;2277;51.626;7.516;2023-07-16T00:09:27;21.30;99.90
4530;DHT22;2277;51.626;7.516;2023-07-16T00:11:53;21.30;99.90
4530;DHT22;2277;51.626;7.516;2023-07-16T00:14:19;21.30;99.90
4530;DHT22;2277;51.626;7.516;2023-07-16T00:16:44;21.30;99.90
4530;DHT22;2277;51.626;7.516;2023-07-16T00:19:11;21.30;99.90
4530;DHT22;2277;51.626;7.516;2023-07-16T00:21:37;21.30;99.90
4530;DHT22;2277;51.626;7.516;2023-07-16T00:24:03;21.30;99.90
4530;DHT22;2277;51.626;7.516;2023-07-16T00:26:29;21.40;99.90
4530;DHT22;2277;51.626;7.516;2023-07-16T00:28:54;21.40;99.90
4530;DHT22;2277;51.626;7.516;2023-07-16T00:31:20;21.50;99.90
4530;DHT22;2277;51.626;7.516;2023-07-16T00:33:45;21.50;99.90
4530;DHT22;2277;51.626;7.516;2023-07-16T00:36:11;21.50;99.90
4530;DHT22;2277;51.626;7.516;2023-07-16T00:38:37;21.40;99.90
4530;DHT22;2277;51.626;7.516;2023-07-16T00:41:02;21.40;99.90
4530;DHT22;2277;51.626;7.516;2023-07-16T00:43:28;21.30;99.90
4530;DHT22;2277;51.626;7.516;2023-07-16T00:45:54;21.10;99.90
4530;DHT22;2277;51.626;7.516;2023-07-16T00:48:20;21.10;99.90
4530;DHT22;2277;51.626;7.516;2023-07-16T00:50:46;21.00;99.90
4530;DHT22;2277;51.626;7.516;2023-07-16T00:53:12;21.00;99.90
4530;DHT22;2277;51.626;7.516;2023-07-16T00:55:38;21.00;99.90
4530;DHT22;2277;51.626;7.516;2023-07-16T00:58:06;20.90;99.90
4530;DHT22;2277;51.626;7.516;2023-07-16T01:00:36;20.90;99.90
4530;DHT22;2277;51.626;7.516;2023-07-16T01:03:07;20.90;99.90
4530;DHT22;2277;51.626;7.516;2023-07-16T01:05:47;20.90;99.90
4530;DHT22;2277;51.626;7.516;2023-07-16T01:08:14;20.80;99.90
4530;DHT22;2277;51.626;7.516;2023-07-16T01:10:41;20.80;99.90
4530;DHT22;2277;51.626;7.516;2023-07-16T01:13:07;20.80;99.90
4530;DHT22;2277;51.626;7.516;2023-07-16T01:15:33;20.80;99.90
4530;DHT22;2277;51.626;7.516;2023-07-16T01:17:58;20.80;99.90
4530;DHT22;2277;51.626;7.516;2023-07-16T01:20:24;20.80;99.90
4530;DHT22;2277;51.626;7.516;2023-07-16T01:31:56;20.80;99.90
4530;DHT22;2277;51.626;7.516;2023-07-16T01:34:23;20.80;99.90
4530;DHT22;2277;51.626;7.516;2023-07-16T01:36:50;20.80;99.90
4530;DHT22;2277;51.626;7.516;2023-07-16T01:39:16;20.70;99.90
4530;DHT22;2277;51.626;7.516;2023-07-16T01:41:42;20.70;99.90
4530;DHT22;2277;51.626;7.516;2023-07-16T01:44:07;20.60;99.90
4530;DHT22;2277;51.626;7.516;2023-07-16T01:46:33;20.50;99.90
4530;DHT22;2277;51.626;7.516;2023-07-16T01:48:59;20.40;99.90
4530;DHT22;2277;51.626;7.516;2023-07-16T01:51:24;20.40;99.90
4530;DHT22;2277;51.626;7.516;2023-07-16T01:53:50;20.30;99.90
4530;DHT22;2277;51.626;7.516;2023-07-16T01:56:16;20.30;99.90
4530;DHT22;2277;51.626;7.516;2023-07-16T01:58:42;20.30;99.90
4530;DHT22;2277;51.626;7.516;2023-07-16T02:01:08;20.30;99.90
4530;DHT22;2277;51.626;7.516;2023-07-16T02:03:33;20.20;99.90
4530;DHT22;2277;51.626;7.516;2023-07-16T02:05:59;20.30;99.90
4530;DHT22;2277;51.626;7.516;2023-07-16T02:08:24;20.30;99.90
4530;DHT22;2277;51.626;7.516;2023-07-16T02:10:50;20.30;99.90
4530;DHT22;2277;51.626;7.516;2023-07-16T02:13:16;20.20;99.90
4530;DHT22;2277;51.626;7.516;2023-07-16T02:15:42;20.20;99.90
4530;DHT22;2277;51.626;7.516;2023-07-16T02:18:09;20.20;99.90
4530;DHT22;2277;51.626;7.516;2023-07-16T02:20:35;20.20;99.90
4530;DHT22;2277;51.626;7.516;2023-07-16T02:23:00;20.20;99.90
4530;DHT22;2277;51.626;7.516;2023-07-16T02:25:26;20.10;99.90
4530;DHT22;2277;51.626;7.516;2023-07-16T02:27:51;20.10;99.90
4530;DHT22;2277;51.626;7.516;2023-07-16T02:30:17;20.10;99.90
4530;DHT22;2277;51.626;7.516;2023-07-16T02:32:43;20.00;99.90
4530;DHT22;2277;51.626;7.516;2023-07-16T02:35:09;19.90;99.90
4530;DHT22;2277;51.626;7.516;2023-07-16T02:37:35;19.90;99.90
4530;DHT22;2277;51.626;7.516;2023-07-16T02:40:01;19.80;99.90
4530;DHT22;2277;51.626;7.516;2023-07-16T02:42:27;19.80;99.90
4530;DHT22;2277;51.626;7.516;2023-07-16T02:44:52;19.70;99.90
4530;DHT22;2277;51.626;7.516;2023-07-16T02:47:18;19.70;99.90
4530;DHT22;2277;51.626;7.516;2023-07-16T02:49:43;19.80;99.90
4530;DHT22;2277;51.626;7.516;2023-07-16T02:52:09;19.80;99.90
4530;DHT22;2277;51.626;7.516;2023-07-16T02:54:35;19.80;99.90
4530;DHT22;2277;51.626;7.516;2023-07-16T02:57:01;19.80;99.90
4530;DHT22;2277;51.626;7.516;2023-07-16T02:59:27;19.70;99.90
4530;DHT22;2277;51.626;7.516;2023-07-16T03:01:53;19.70;99.90
4530;DHT22;2277;51.626;7.516;2023-07-16T03:04:19;19.70;99.90
4530;DHT22;2277;51.626;7.516;2023-07-16T03:06:44;19.70;99.90
4530;DHT22;2277;51.626;7.516;2023-07-16T03:09:10;19.60;99.90
4530;DHT22;2277;51.626;7.516;2023-07-16T03:11:36;19.70;99.90
4530;DHT22;2277;51.626;7.516;2023-07-16T03:14:01;19.70;99.90
4530;DHT22;2277;51.626;7.516;2023-07-16T03:16:27;19.70;99.90
4530;DHT22;2277;51.626;7.516;2023-07-16T03:18:53;19.70;99.90
4530;DHT22;2277;51.626;7.516;2023-07-16T03:21:19;19.70;99.90
4530;DHT22;2277;51.626;7.516;2023-07-16T03:23:44;19.70;99.90
4530;DHT22;2277;51.626;7.516;2023-07-16T03:26:10;19.70;99.90
4530;DHT22;2277;51.626;7.516;2023-07-16T03:28:36;19.70;99.90
4530;DHT22;2277;51.626;7.516;2023-07-16T03:31:01;19.70;99.90
4530;DHT22;2277;51.626;7.516;2023-07-16T03:33:27;19.80;99.90
4530;DHT22;2277;51.626;7.516;2023-07-16T03:35:52;19.70;99.90
4530;DHT22;2277;51.626;7.516;2023-07-16T03:38:18;19.80;99.90
4530;DHT22;2277;51.626;7.516;2023-07-16T03:40:46;19.80;99.90
4530;DHT22;2277;51.626;7.516;2023-07-16T03:43:12;19.80;99.90
4530;DHT22;2277;51.626;7.516;2023-07-16T03:45:38;19.80;99.90
4530;DHT22;2277;51.626;7.516;2023-07-16T03:48:04;19.90;99.90
4530;DHT22;2277;51.626;7.516;2023-07-16T03:50:29;19.90;99.90
4530;DHT22;2277;51.626;7.516;2023-07-16T03:52:55;19.90;99.90
4530;DHT22;2277;51.626;7.516;2023-07-16T03:55:21;19.90;99.90
4530;DHT22;2277;51.626;7.516;2023-07-16T03:57:46;19.80;99.90
4530;DHT22;2277;51.626;7.516;2023-07-16T04:00:12;19.80;99.90
4530;DHT22;2277;51.626;7.516;2023-07-16T04:02:38;19.80;99.90
4530;DHT22;2277;51.626;7.516;2023-07-16T04:05:04;19.80;99.90
4530;DHT22;2277;51.626;7.516;2023-07-16T04:07:29;19.80;99.90
4530;DHT22;2277;51.626;7.516;2023-07-16T04:09:55;19.80;99.90
4530;DHT22;2277;51.626;7.516;2023-07-16T04:12:20;19.70;99.90
4530;DHT22;2277;51.626;7.516;2023-07-16T04:14:47;19.70;99.90
4530;DHT22;2277;51.626;7.516;2023-07-16T04:17:12;19.70;99.90
4530;DHT22;2277;51.626;7.516;2023-07-16T04:19:38;19.70;99.90
4530;DHT22;2277;51.626;7.516;2023-07-16T04:22:04;19.70;99.90
4530;DHT22;2277;51.626;7.516;2023-07-16T04:24:30;19.70;99.90
4530;DHT22;2277;51.626;7.516;2023-07-16T04:26:55;19.70;99.90
4530;DHT22;2277;51.626;7.516;2023-07-16T04:29:21;19.70;99.90
4530;DHT22;2277;51.626;7.516;2023-07-16T04:31:47;19.70;99.90
4530;DHT22;2277;51.626;7.516;2023-07-16T04:34:13;19.70;99.90
4530;DHT22;2277;51.626;7.516;2023-07-16T04:36:39;19.70;99.90
4530;DHT22;2277;51.626;7.516;2023-07-16T04:39:05;19.60;99.90
4530;DHT22;2277;51.626;7.516;2023-07-16T04:41:30;19.70;99.90
4530;DHT22;2277;51.626;7.516;2023-07-16T04:43:56;19.70;99.90
4530;DHT22;2277;51.626;7.516;2023-07-16T04:46:22;19.60;99.90
4530;DHT22;2277;51.626;7.516;2023-07-16T04:48:47;19.70;99.90
4530;DHT22;2277;51.626;7.516;2023-07-16T04:51:13;19.70;99.90
4530;DHT22;2277;51.626;7.516;2023-07-16T04:53:39;19.80;99.90
4530;DHT22;2277;51.626;7.516;2023-07-16T04:56:11;19.80;99.90
4530;DHT22;2277;51.626;7.516;2023-07-16T04:58:37;19.80;99.90
4530;DHT22;2277;51.626;7.516;2023-07-16T05:01:03;19.80;99.90
4530;DHT22;2277;51.626;7.516;2023-07-16T05:03:29;19.80;99.90
4530;DHT22;2277;51.626;7.516;2023-07-16T05:05:54;19.80;99.90
4530;DHT22;2277;51.626;7.516;2023-07-16T05:08:20;19.80;99.90
4530;DHT22;2277;51.626;7.516;2023-07-16T05:10:45;19.80;99.90
4530;DHT22;2277;51.626;7.516;2023-07-16T05:13:11;19.70;99.90
4530;DHT22;2277;51.626;7.516;2023-07-16T05:15:37;19.80;99.90
4530;DHT22;2277;51.626;7.516;2023-07-16T05:18:03;19.80;99.90
4530;DHT22;2277;51.626;7.516;2023-07-16T05:20:29;19.80;99.90
4530;DHT22;2277;51.626;7.516;2023-07-16T05:22:54;19.80;99.90
4530;DHT22;2277;51.626;7.516;2023-07-16T05:25:20;19.80;99.90
4530;DHT22;2277;51.626;7.516;2023-07-16T05:27:46;19.80;99.90
4530;DHT22;2277;51.626;7.516;2023-07-16T05:30:11;19.80;99.90
4530;DHT22;2277;51.626;7.516;2023-07-16T05:32:37;19.90;99.90
4530;DHT22;2277;51.626;7.516;2023-07-16T05:35:03;19.90;99.90
4530;DHT22;2277;51.626;7.516;2023-07-16T05:37:29;19.80;99.90
4530;DHT22;2277;51.626;7.516;2023-07-16T05:39:54;19.90;99.90
4530;DHT22;2277;51.626;7.516;2023-07-16T05:42:20;19.90;99.90
4530;DHT22;2277;51.626;7.516;2023-07-16T05:44:47;19.90;99.90
4530;DHT22;2277;51.626;7.516;2023-07-16T05:47:13;19.90;99.90
4530;DHT22;2277;51.626;7.516;2023-07-16T05:49:39;20.00;99.90
4530;DHT22;2277;51.626;7.516;2023-07-16T05:52:05;20.00;99.90
4530;DHT22;2277;51.626;7.516;2023-07-16T05:54:30;20.00;99.90
4530;DHT22;2277;51.626;7.516;2023-07-16T05:56:57;20.00;99.90
4530;DHT22;2277;51.626;7.516;2023-07-16T05:59:23;20.10;99.90
4530;DHT22;2277;51.626;7.516;2023-07-16T06:01:48;20.10;99.90
4530;DHT22;2277;51.626;7.516;2023-07-16T06:04:14;20.20;99.90
4530;DHT22;2277;51.626;7.516;2023-07-16T06:06:39;20.20;99.90
4530;DHT22;2277;51.626;7.516;2023-07-16T06:09:05;20.30;99.90
4530;DHT22;2277;51.626;7.516;2023-07-16T06:11:31;20.30;99.90
4530;DHT22;2277;51.626;7.516;2023-07-16T06:13:56;20.30;99.90
4530;DHT22;2277;51.626;7.516;2023-07-16T06:16:22;20.20;99.90
4530;DHT22;2277;51.626;7.516;2023-07-16T06:18:47;20.20;99.90
4530;DHT22;2277;51.626;7.516;2023-07-16T06:21:13;20.20;99.90
4530;DHT22;2277;51.626;7.516;2023-07-16T06:23:39;20.20;99.90
4530;DHT22;2277;51.626;7.516;2023-07-16T06:26:05;20.20;99.90
4530;DHT22;2277;51.626;7.516;2023-07-16T06:28:31;20.30;99.90
4530;DHT22;2277;51.626;7.516;2023-07-16T06:30:56;20.40;99.90
4530;DHT22;2277;51.626;7.516;2023-07-16T06:33:22;20.40;99.90
4530;DHT22;2277;51.626;7.516;2023-07-16T06:35:48;20.40;99.90
4530;DHT22;2277;51.626;7.516;2023-07-16T06:38:14;20.50;99.90
4530;DHT22;2277;51.626;7.516;2023-07-16T06:40:45;20.40;99.90
4530;DHT22;2277;51.626;7.516;2023-07-16T06:43:11;20.40;99.90
4530;DHT22;2277;51.626;7.516;2023-07-16T06:45:36;20.40;99.90
4530;DHT22;2277;51.626;7.516;2023-07-16T06:48:02;20.40;99.90
4530;DHT22;2277;51.626;7.516;2023-07-16T06:50:28;20.50;99.90
4530;DHT22;2277;51.626;7.516;2023-07-16T06:52:53;20.50;99.90
4530;DHT22;2277;51.626;7.516;2023-07-16T06:55:19;20.50;99.90
4530;DHT22;2277;51.626;7.516;2023-07-16T06:57:44;20.50;99.90
4530;DHT22;2277;51.626;7.516;2023-07-16T07:00:10;20.50;99.90
4530;DHT22;2277;51.626;7.516;2023-07-16T07:02:36;20.50;99.90
4530;DHT22;2277;51.626;7.516;2023-07-16T07:05:02;20.50;99.90
4530;DHT22;2277;51.626;7.516;2023-07-16T07:07:28;20.60;99.90
4530;DHT22;2277;51.626;7.516;2023-07-16T07:09:53;20.80;99.90
4530;DHT22;2277;51.626;7.516;2023-07-16T07:12:19;20.80;99.90
4530;DHT22;2277;51.626;7.516;2023-07-16T07:14:47;21.00;99.90
4530;DHT22;2277;51.626;7.516;2023-07-16T07:17:13;21.10;99.90
4530;DHT22;2277;51.626;7.516;2023-07-16T07:19:39;21.10;99.90
4530;DHT22;2277;51.626;7.516;2023-07-16T07:22:04;21.10;99.90
4530;DHT22;2277;51.626;7.516;2023-07-16T07:24:30;21.20;99.90
4530;DHT22;2277;51.626;7.516;2023-07-16T07:26:55;21.30;99.90
4530;DHT22;2277;51.626;7.516;2023-07-16T07:29:21;21.40;99.90
4530;DHT22;2277;51.626;7.516;2023-07-16T07:31:47;21.50;99.90
4530;DHT22;2277;51.626;7.516;2023-07-16T07:34:12;21.60;99.90
4530;DHT22;2277;51.626;7.516;2023-07-16T07:36:38;21.80;99.90
4530;DHT22;2277;51.626;7.516;2023-07-16T07:39:03;21.80;99.90
4530;DHT22;2277;51.626;7.516;2023-07-16T07:41:29;21.80;99.90
4530;DHT22;2277;51.626;7.516;2023-07-16T07:43:55;21.80;99.90
4530;DHT22;2277;51.626;7.516;2023-07-16T07:46:20;21.90;99.90
4530;DHT22;2277;51.626;7.516;2023-07-16T07:48:46;21.80;99.90
4530;DHT22;2277;51.626;7.516;2023-07-16T07:51:11;21.80;99.90
4530;DHT22;2277;51.626;7.516;2023-07-16T07:53:38;21.70;99.90
4530;DHT22;2277;51.626;7.516;2023-07-16T07:56:04;21.70;99.90
4530;DHT22;2277;51.626;7.516;2023-07-16T07:58:29;21.70;99.90
4530;DHT22;2277;51.626;7.516;2023-07-16T08:00:55;21.80;99.90
4530;DHT22;2277;51.626;7.516;2023-07-16T08:03:20;22.00;99.90
4530;DHT22;2277;51.626;7.516;2023-07-16T08:05:49;22.20;99.90
4530;DHT22;2277;51.626;7.516;2023-07-16T08:08:14;22.10;99.90
4530;DHT22;2277;51.626;7.516;2023-07-16T08:10:42;22.30;99.90
4530;DHT22;2277;51.626;7.516;2023-07-16T08:13:07;22.50;99.90
4530;DHT22;2277;51.626;7.516;2023-07-16T08:15:33;22.60;99.90
4530;DHT22;2277;51.626;7.516;2023-07-16T08:17:58;22.80;99.90
4530;DHT22;2277;51.626;7.516;2023-07-16T08:20:25;22.90;99.90
4530;DHT22;2277;51.626;7.516;2023-07-16T08:22:51;23.10;99.90
4530;DHT22;2277;51.626;7.516;2023-07-16T08:25:17;22.90;99.90
4530;DHT22;2277;51.626;7.516;2023-07-16T08:27:42;23.00;99.90
4530;DHT22;2277;51.626;7.516;2023-07-16T08:30:08;23.20;99.90
4530;DHT22;2277;51.626;7.516;2023-07-16T08:32:34;23.20;99.90
4530;DHT22;2277;51.626;7.516;2023-07-16T08:34:59;23.20;99.90
4530;DHT22;2277;51.626;7.516;2023-07-16T08:37:25;23.20;99.90
4530;DHT22;2277;51.626;7.516;2023-07-16T08:39:53;23.20;99.90
4530;DHT22;2277;51.626;7.516;2023-07-16T08:42:19;23.20;99.90
4530;DHT22;2277;51.626;7.516;2023-07-16T08:44:46;23.10;99.90
4530;DHT22;2277;51.626;7.516;2023-07-16T08:47:11;23.00;99.90
4530;DHT22;2277;51.626;7.516;2023-07-16T08:49:39;22.90;99.90
4530;DHT22;2277;51.626;7.516;2023-07-16T08:52:06;22.90;99.90
4530;DHT22;2277;51.626;7.516;2023-07-16T08:54:33;23.00;99.90
4530;DHT22;2277;51.626;7.516;2023-07-16T08:56:59;23.20;99.90
4530;DHT22;2277;51.626;7.516;2023-07-16T08:59:26;23.00;99.90
4530;DHT22;2277;51.626;7.516;2023-07-16T09:01:52;23.10;99.90
4530;DHT22;2277;51.626;7.516;2023-07-16T09:04:18;23.30;99.90
4530;DHT22;2277;51.626;7.516;2023-07-16T09:06:44;23.40;99.90
4530;DHT22;2277;51.626;7.516;2023-07-16T09:09:22;23.70;99.90
4530;DHT22;2277;51.626;7.516;2023-07-16T09:11:48;23.80;99.90
4530;DHT22;2277;51.626;7.516;2023-07-16T09:14:21;23.90;99.90
4530;DHT22;2277;51.626;7.516;2023-07-16T09:16:50;24.10;99.90
4530;DHT22;2277;51.626;7.516;2023-07-16T09:19:16;24.20;99.90
4530;DHT22;2277;51.626;7.516;2023-07-16T09:21:49;24.40;99.90
4530;DHT22;2277;51.626;7.516;2023-07-16T09:24:15;24.40;99.90
4530;DHT22;2277;51.626;7.516;2023-07-16T09:26:50;24.50;99.90
4530;DHT22;2277;51.626;7.516;2023-07-16T09:29:17;24.60;99.90
4530;DHT22;2277;51.626;7.516;2023-07-16T09:34:18;24.50;99.90
4530;DHT22;2277;51.626;7.516;2023-07-16T09:36:47;24.70;99.90
4530;DHT22;2277;51.626;7.516;2023-07-16T09:39:17;24.80;99.90
4530;DHT22;2277;51.626;7.516;2023-07-16T09:41:47;24.80;99.90
4530;DHT22;2277;51.626;7.516;2023-07-16T09:44:14;25.10;99.90
4530;DHT22;2277;51.626;7.516;2023-07-16T09:46:40;25.20;99.90
4530;DHT22;2277;51.626;7.516;2023-07-16T09:49:07;25.00;98.90
4530;DHT22;2277;51.626;7.516;2023-07-16T09:51:35;25.10;99.60
4530;DHT22;2277;51.626;7.516;2023-07-16T09:54:01;25.10;98.50
4530;DHT22;2277;51.626;7.516;2023-07-16T09:58:59;25.20;97.40
4530;DHT22;2277;51.626;7.516;2023-07-16T10:01:26;25.20;97.80
4530;DHT22;2277;51.626;7.516;2023-07-16T10:03:51;25.30;96.60
4530;DHT22;2277;51.626;7.516;2023-07-16T10:06:17;25.30;96.20
4530;DHT22;2277;51.626;7.516;2023-07-16T10:08:49;25.30;97.00
4530;DHT22;2277;51.626;7.516;2023-07-16T10:11:18;25.50;95.90
4530;DHT22;2277;51.626;7.516;2023-07-16T10:13:50;25.70;95.60
4530;DHT22;2277;51.626;7.516;2023-07-16T10:16:22;25.50;95.70
4530;DHT22;2277;51.626;7.516;2023-07-16T10:18:52;25.50;95.60
4530;DHT22;2277;51.626;7.516;2023-07-16T10:21:24;25.40;95.20
4530;DHT22;2277;51.626;7.516;2023-07-16T10:23:59;25.50;95.40
4530;DHT22;2277;51.626;7.516;2023-07-16T10:26:29;25.60;94.80
4530;DHT22;2277;51.626;7.516;2023-07-16T10:28:55;25.80;94.90
4530;DHT22;2277;51.626;7.516;2023-07-16T10:31:24;26.00;95.40
4530;DHT22;2277;51.626;7.516;2023-07-16T10:34:03;26.20;95.40
4530;DHT22;2277;51.626;7.516;2023-07-16T10:36:39;26.30;93.70
4530;DHT22;2277;51.626;7.516;2023-07-16T10:39:05;26.10;93.50
4530;DHT22;2277;51.626;7.516;2023-07-16T10:41:31;26.00;94.20
4530;DHT22;2277;51.626;7.516;2023-07-16T10:44:01;25.80;94.00
4530;DHT22;2277;51.626;7.516;2023-07-16T10:46:27;25.90;93.90
4530;DHT22;2277;51.626;7.516;2023-07-16T10:48:52;25.80;93.90
4530;DHT22;2277;51.626;7.516;2023-07-16T10:51:25;25.80;94.00
4530;DHT22;2277;51.626;7.516;2023-07-16T10:53:51;25.90;93.90
4530;DHT22;2277;51.626;7.516;2023-07-16T10:56:20;25.90;93.50
4530;DHT22;2277;51.626;7.516;2023-07-16T10:58:46;26.00;93.10
4530;DHT22;2277;51.626;7.516;2023-07-16T11:01:11;25.90;93.20
4530;DHT22;2277;51.626;7.516;2023-07-16T11:03:37;26.00;92.60
4530;DHT22;2277;51.626;7.516;2023-07-16T11:06:07;26.10;92.60
4530;DHT22;2277;51.626;7.516;2023-07-16T11:08:33;26.20;92.80
4530;DHT22;2277;51.626;7.516;2023-07-16T11:10:59;26.10;91.30
4530;DHT22;2277;51.626;7.516;2023-07-16T11:13:29;26.20;91.00
4530;DHT22;2277;51.626;7.516;2023-07-16T11:15:56;26.10;91.90
4530;DHT22;2277;51.626;7.516;2023-07-16T11:18:23;26.10;91.70
4530;DHT22;2277;51.626;7.516;2023-07-16T11:20:53;26.00;91.40
4530;DHT22;2277;51.626;7.516;2023-07-16T11:23:19;26.10;92.60
4530;DHT22;2277;51.626;7.516;2023-07-16T11:25:48;26.20;92.10
4530;DHT22;2277;51.626;7.516;2023-07-16T11:28:15;26.30;93.50
4530;DHT22;2277;51.626;7.516;2023-07-16T11:30:40;26.60;92.20
4530;DHT22;2277;51.626;7.516;2023-07-16T11:33:13;26.70;91.00
4530;DHT22;2277;51.626;7.516;2023-07-16T11:35:39;26.60;91.50
4530;DHT22;2277;51.626;7.516;2023-07-16T11:38:05;26.70;93.20
4530;DHT22;2277;51.626;7.516;2023-07-16T11:40:34;26.70;91.60
4530;DHT22;2277;51.626;7.516;2023-07-16T11:43:11;26.70;91.80
4530;DHT22;2277;51.626;7.516;2023-07-16T11:45:36;26.70;91.50
4530;DHT22;2277;51.626;7.516;2023-07-16T11:48:03;26.60;90.80
4530;DHT22;2277;51.626;7.516;2023-07-16T11:50:29;26.50;90.60
4530;DHT22;2277;51.626;7.516;2023-07-16T11:53:00;26.20;91.20
4530;DHT22;2277;51.626;7.516;2023-07-16T11:55:26;26.10;91.20
4530;DHT22;2277;51.626;7.516;2023-07-16T11:57:52;26.10;92.10
4530;DHT22;2277;51.626;7.516;2023-07-16T12:00:17;26.00;91.90
4530;DHT22;2277;51.626;7.516;2023-07-16T12:02:44;26.00;91.80
4530;DHT22;2277;51.626;7.516;2023-07-16T12:05:17;25.90;91.70
4530;DHT22;2277;51.626;7.516;2023-07-16T12:07:43;25.80;92.20
4530;DHT22;2277;51.626;7.516;2023-07-16T12:10:08;25.90;92.50
4530;DHT22;2277;51.626;7.516;2023-07-16T12:12:34;25.70;92.40
4530;DHT22;2277;51.626;7.516;2023-07-16T12:15:04;25.70;92.40
4530;DHT22;2277;51.626;7.516;2023-07-16T12:17:29;25.70;92.80
4530;DHT22;2277;51.626;7.516;2023-07-16T12:19:55;25.70;92.60
4530;DHT22;2277;51.626;7.516;2023-07-16T12:22:21;25.60;92.60
4530;DHT22;2277;51.626;7.516;2023-07-16T12:24:47;25.60;91.90
4530;DHT22;2277;51.626;7.516;2023-07-16T12:27:13;25.50;92.70
4530;DHT22;2277;51.626;7.516;2023-07-16T12:29:39;25.30;93.00
4530;DHT22;2277;51.626;7.516;2023-07-16T12:32:05;25.30;93.30
4530;DHT22;2277;51.626;7.516;2023-07-16T12:34:30;25.30;93.60
4530;DHT22;2277;51.626;7.516;2023-07-16T12:36:56;25.50;92.90
4530;DHT22;2277;51.626;7.516;2023-07-16T12:39:22;25.60;92.30
4530;DHT22;2277;51.626;7.516;2023-07-16T12:41:48;25.70;92.50
4530;DHT22;2277;51.626;7.516;2023-07-16T12:44:13;25.70;92.60
4530;DHT22;2277;51.626;7.516;2023-07-16T12:46:39;25.80;92.00
4530;DHT22;2277;51.626;7.516;2023-07-16T12:49:04;25.90;92.40
4530;DHT22;2277;51.626;7.516;2023-07-16T12:51:30;26.00;92.70
4530;DHT22;2277;51.626;7.516;2023-07-16T12:53:55;26.20;91.80
4530;DHT22;2277;51.626;7.516;2023-07-16T12:56:21;26.30;91.30
4530;DHT22;2277;51.626;7.516;2023-07-16T12:58:50;26.40;90.90
4530;DHT22;2277;51.626;7.516;2023-07-16T13:01:15;26.40;91.90
4530;DHT22;2277;51.626;7.516;2023-07-16T13:03:41;26.50;91.00
4530;DHT22;2277;51.626;7.516;2023-07-16T13:06:06;26.50;91.30
4530;DHT22;2277;51.626;7.516;2023-07-16T13:08:32;26.60;91.50
4530;DHT22;2277;51.626;7.516;2023-07-16T13:10:58;26.70;91.10
4530;DHT22;2277;51.626;7.516;2023-07-16T13:13:23;26.80;90.40
4530;DHT22;2277;51.626;7.516;2023-07-16T13:15:49;26.80;91.20
4530;DHT22;2277;51.626;7.516;2023-07-16T13:18:15;26.80;91.00
4530;DHT22;2277;51.626;7.516;2023-07-16T13:20:40;26.90;92.70
4530;DHT22;2277;51.626;7.516;2023-07-16T13:23:06;27.00;91.70
4530;DHT22;2277;51.626;7.516;2023-07-16T13:25:34;27.00;91.20
4530;DHT22;2277;51.626;7.516;2023-07-16T13:27:59;27.10;92.20
4530;DHT22;2277;51.626;7.516;2023-07-16T13:30:25;27.10;90.80
4530;DHT22;2277;51.626;7.516;2023-07-16T13:32:51;27.10;90.20
4530;DHT22;2277;51.626;7.516;2023-07-16T13:35:20;27.10;90.20
4530;DHT22;2277;51.626;7.516;2023-07-16T13:37:46;27.10;88.20
4530;DHT22;2277;51.626;7.516;2023-07-16T13:40:12;27.10;89.10
4530;DHT22;2277;51.626;7.516;2023-07-16T13:42:37;27.20;89.60
4530;DHT22;2277;51.626;7.516;2023-07-16T13:45:04;27.30;90.20
4530;DHT22;2277;51.626;7.516;2023-07-16T13:47:30;27.40;92.00
4530;DHT22;2277;51.626;7.516;2023-07-16T13:49:56;27.60;90.70
4530;DHT22;2277;51.626;7.516;2023-07-16T13:52:21;27.70;91.50
4530;DHT22;2277;51.626;7.516;2023-07-16T13:54:47;27.80;89.30
4530;DHT22;2277;51.626;7.516;2023-07-16T13:57:12;28.00;90.60
4530;DHT22;2277;51.626;7.516;2023-07-16T13:59:38;28.00;86.60
4530;DHT22;2277;51.626;7.516;2023-07-16T14:02:04;28.10;87.90
4530;DHT22;2277;51.626;7.516;2023-07-16T14:04:30;28.30;88.30
4530;DHT22;2277;51.626;7.516;2023-07-16T14:06:56;28.40;91.40
4530;DHT22;2277;51.626;7.516;2023-07-16T14:09:22;28.50;88.00
4530;DHT22;2277;51.626;7.516;2023-07-16T14:11:48;28.60;89.40
4530;DHT22;2277;51.626;7.516;2023-07-16T14:14:17;28.80;87.90
4530;DHT22;2277;51.626;7.516;2023-07-16T14:16:43;29.00;85.90
4530;DHT22;2277;51.626;7.516;2023-07-16T14:19:09;29.10;82.20
4530;DHT22;2277;51.626;7.516;2023-07-16T14:21:37;29.30;83.00
4530;DHT22;2277;51.626;7.516;2023-07-16T14:24:04;29.40;80.40
4530;DHT22;2277;51.626;7.516;2023-07-16T14:26:29;29.40;79.40
4530;DHT22;2277;51.626;7.516;2023-07-16T14:28:55;29.30;77.80
4530;DHT22;2277;51.626;7.516;2023-07-16T14:31:20;29.30;79.60
4530;DHT22;2277;51.626;7.516;2023-07-16T14:33:46;29.00;77.30
4530;DHT22;2277;51.626;7.516;2023-07-16T14:36:11;28.70;80.40
4530;DHT22;2277;51.626;7.516;2023-07-16T14:38:37;28.70;80.70
4530;DHT22;2277;51.626;7.516;2023-07-16T14:41:03;28.60;79.90
4530;DHT22;2277;51.626;7.516;2023-07-16T14:43:30;28.50;81.20
4530;DHT22;2277;51.626;7.516;2023-07-16T14:45:55;28.60;80.30
4530;DHT22;2277;51.626;7.516;2023-07-16T14:48:21;28.50;80.50
4530;DHT22;2277;51.626;7.516;2023-07-16T14:50:50;28.40;79.50
4530;DHT22;2277;51.626;7.516;2023-07-16T14:53:16;28.30;81.00
4530;DHT22;2277;51.626;7.516;2023-07-16T14:55:50;28.30;80.80
4530;DHT22;2277;51.626;7.516;2023-07-16T14:58:19;28.30;82.80
4530;DHT22;2277;51.626;7.516;2023-07-16T15:00:45;28.40;83.70
4530;DHT22;2277;51.626;7.516;2023-07-16T15:03:11;28.60;81.40
4530;DHT22;2277;51.626;7.516;2023-07-16T15:05:37;28.50;80.70
4530;DHT22;2277;51.626;7.516;2023-07-16T15:08:03;28.40;79.20
4530;DHT22;2277;51.626;7.516;2023-07-16T15:10:29;28.40;80.40
4530;DHT22;2277;51.626;7.516;2023-07-16T15:12:55;28.40;76.30
4530;DHT22;2277;51.626;7.516;2023-07-16T15:15:21;28.30;77.80
4530;DHT22;2277;51.626;7.516;2023-07-16T15:17:47;28.40;81.80
4530;DHT22;2277;51.626;7.516;2023-07-16T15:20:12;28.50;79.80
4530;DHT22;2277;51.626;7.516;2023-07-16T15:22:38;28.50;76.90
4530;DHT22;2277;51.626;7.516;2023-07-16T15:25:04;28.40;77.20
4530;DHT22;2277;51.626;7.516;2023-07-16T15:27:30;28.30;76.40
4530;DHT22;2277;51.626;7.516;2023-07-16T15:29:56;28.30;77.70
4530;DHT22;2277;51.626;7.516;2023-07-16T15:32:22;28.20;78.60
4530;DHT22;2277;51.626;7.516;2023-07-16T15:34:47;28.00;77.90
4530;DHT22;2277;51.626;7.516;2023-07-16T15:37:13;27.90;77.10
4530;DHT22;2277;51.626;7.516;2023-07-16T15:39:39;27.80;77.00
4530;DHT22;2277;51.626;7.516;2023-07-16T15:42:05;27.80;75.60
4530;DHT22;2277;51.626;7.516;2023-07-16T15:44:30;27.70;76.20
4530;DHT22;2277;51.626;7.516;2023-07-16T15:46:57;27.50;77.00
4530;DHT22;2277;51.626;7.516;2023-07-16T15:49:23;27.40;78.80
4530;DHT22;2277;51.626;7.516;2023-07-16T15:51:48;27.20;78.70
4530;DHT22;2277;51.626;7.516;2023-07-16T15:54:14;27.10;80.10
4530;DHT22;2277;51.626;7.516;2023-07-16T15:56:40;26.90;81.00
4530;DHT22;2277;51.626;7.516;2023-07-16T15:59:06;26.90;81.90
4530;DHT22;2277;51.626;7.516;2023-07-16T16:01:32;26.80;80.60
4530;DHT22;2277;51.626;7.516;2023-07-16T16:03:58;26.90;81.50
4530;DHT22;2277;51.626;7.516;2023-07-16T16:06:23;26.90;82.00
4530;DHT22;2277;51.626;7.516;2023-07-16T16:08:49;26.90;82.10
4530;DHT22;2277;51.626;7.516;2023-07-16T16:11:14;26.80;81.00